sensor_id;sensor_type;location;lat;lon;timestamp;P1;durP1;ratioP1;P2;durP2;ratioP2
33104;SDS011;19476;51.448;6.674;2023-05-13T00:01:13;5.80;;;3.53;;
33104;SDS011;19476;51.448;6.674;2023-05-13T00:03:40;6.28;;;4.20;;
33104;SDS011;19476;51.448;6.674;2023-05-13T00:06:06;8.02;;;4.38;;
33104;SDS011;19476;51.448;6.674;2023-05-13T00:08:31;6.35;;;4.45;;
33104;SDS011;19476;51.448;6.674;2023-05-13T00:10:57;6.85;;;4.47;;
33104;SDS011;19476;51.448;6.674;2023-05-13T00:13:23;7.45;;;4.40;;
33104;SDS011;19476;51.448;6.674;2023-05-13T00:15:49;7.05;;;3.90;;
33104;SDS011;19476;51.448;6.674;2023-05-13T00:18:15;7.68;;;4.57;;
33104;SDS011;19476;51.448;6.674;2023-05-13T00:20:41;6.72;;;4.43;;
33104;SDS011;19476;51.448;6.674;2023-05-13T00:23:06;6.97;;;4.30;;
33104;SDS011;19476;51.448;6.674;2023-05-13T00:25:32;5.43;;;4.22;;
33104;SDS011;19476;51.448;6.674;2023-05-13T00:27:58;6.60;;;4.15;;
33104;SDS011;19476;51.448;6.674;2023-05-13T00:30:24;5.43;;;4.15;;
33104;SDS011;19476;51.448;6.674;2023-05-13T00:32:50;7.60;;;4.13;;
33104;SDS011;19476;51.448;6.674;2023-05-13T00:35:16;6.43;;;4.20;;
33104;SDS011;19476;51.448;6.674;2023-05-13T00:37:41;5.45;;;4.10;;
33104;SDS011;19476;51.448;6.674;2023-05-13T00:40:12;7.13;;;4.07;;
33104;SDS011;19476;51.448;6.674;2023-05-13T00:42:47;5.00;;;3.72;;
33104;SDS011;19476;51.448;6.674;2023-05-13T00:45:13;5.75;;;3.33;;
33104;SDS011;19476;51.448;6.674;2023-05-13T00:47:40;7.63;;;4.40;;
33104;SDS011;19476;51.448;6.674;2023-05-13T00:50:06;7.03;;;4.82;;
33104;SDS011;19476;51.448;6.674;2023-05-13T00:52:34;6.22;;;3.67;;
33104;SDS011;19476;51.448;6.674;2023-05-13T00:55:02;6.03;;;4.60;;
33104;SDS011;19476;51.448;6.674;2023-05-13T00:57:28;6.63;;;4.38;;
33104;SDS011;19476;51.448;6.674;2023-05-13T00:59:54;6.18;;;4.20;;
33104;SDS011;19476;51.448;6.674;2023-05-13T01:02:23;7.60;;;4.03;;
33104;SDS011;19476;51.448;6.674;2023-05-13T01:08:01;6.00;;;3.85;;
33104;SDS011;19476;51.448;6.674;2023-05-13T01:10:40;5.63;;;4.00;;
33104;SDS011;19476;51.448;6.674;2023-05-13T01:13:19;6.90;;;3.90;;
33104;SDS011;19476;51.448;6.674;2023-05-13T01:15:57;5.47;;;3.88;;
33104;SDS011;19476;51.448;6.674;2023-05-13T01:18:30;5.40;;;3.97;;
33104;SDS011;19476;51.448;6.674;2023-05-13T01:21:00;5.25;;;4.00;;
33104;SDS011;19476;51.448;6.674;2023-05-13T01:23:28;6.15;;;3.92;;
33104;SDS011;19476;51.448;6.674;2023-05-13T01:25:54;6.05;;;4.30;;
33104;SDS011;19476;51.448;6.674;2023-05-13T01:28:20;5.18;;;4.05;;
33104;SDS011;19476;51.448;6.674;2023-05-13T01:30:46;5.25;;;3.72;;
33104;SDS011;19476;51.448;6.674;2023-05-13T01:33:13;5.38;;;3.97;;
33104;SDS011;19476;51.448;6.674;2023-05-13T01:35:40;5.97;;;4.28;;
33104;SDS011;19476;51.448;6.674;2023-05-13T01:38:07;6.57;;;4.07;;
33104;SDS011;19476;51.448;6.674;2023-05-13T01:40:33;6.57;;;4.15;;
33104;SDS011;19476;51.448;6.674;2023-05-13T01:42:59;6.82;;;4.10;;
33104;SDS011;19476;51.448;6.674;2023-05-13T01:45:28;5.68;;;4.18;;
33104;SDS011;19476;51.448;6.674;2023-05-13T01:47:54;6.05;;;4.45;;
33104;SDS011;19476;51.448;6.674;2023-05-13T01:50:20;6.13;;;4.30;;
33104;SDS011;19476;51.448;6.674;2023-05-13T01:52:46;5.53;;;4.25;;
33104;SDS011;19476;51.448;6.674;2023-05-13T01:55:12;5.95;;;4.55;;
33104;SDS011;19476;51.448;6.674;2023-05-13T01:57:38;6.18;;;4.18;;
33104;SDS011;19476;51.448;6.674;2023-05-13T02:00:04;6.82;;;4.60;;
33104;SDS011;19476;51.448;6.674;2023-05-13T02:02:30;6.47;;;4.47;;
33104;SDS011;19476;51.448;6.674;2023-05-13T02:04:56;6.57;;;4.30;;
33104;SDS011;19476;51.448;6.674;2023-05-13T02:07:22;8.55;;;4.55;;
33104;SDS011;19476;51.448;6.674;2023-05-13T02:09:47;6.03;;;4.40;;
33104;SDS011;19476;51.448;6.674;2023-05-13T02:12:13;6.53;;;4.32;;
33104;SDS011;19476;51.448;6.674;2023-05-13T02:14:39;7.20;;;4.30;;
33104;SDS011;19476;51.448;6.674;2023-05-13T02:17:05;5.43;;;3.90;;
33104;SDS011;19476;51.448;6.674;2023-05-13T02:19:31;6.07;;;3.90;;
33104;SDS011;19476;51.448;6.674;2023-05-13T02:21:56;5.80;;;3.90;;
33104;SDS011;19476;51.448;6.674;2023-05-13T02:24:22;6.88;;;4.43;;
33104;SDS011;19476;51.448;6.674;2023-05-13T02:26:48;6.43;;;4.18;;
33104;SDS011;19476;51.448;6.674;2023-05-13T02:29:13;6.07;;;4.07;;
33104;SDS011;19476;51.448;6.674;2023-05-13T02:31:40;5.43;;;3.88;;
33104;SDS011;19476;51.448;6.674;2023-05-13T02:34:07;4.75;;;3.88;;
33104;SDS011;19476;51.448;6.674;2023-05-13T02:36:33;6.25;;;3.72;;
33104;SDS011;19476;51.448;6.674;2023-05-13T02:38:59;6.45;;;3.95;;
33104;SDS011;19476;51.448;6.674;2023-05-13T02:41:24;6.10;;;3.92;;
33104;SDS011;19476;51.448;6.674;2023-05-13T02:43:50;5.72;;;3.85;;
33104;SDS011;19476;51.448;6.674;2023-05-13T02:46:16;6.53;;;4.35;;
33104;SDS011;19476;51.448;6.674;2023-05-13T02:48:42;7.10;;;4.55;;
33104;SDS011;19476;51.448;6.674;2023-05-13T02:51:08;7.03;;;4.50;;
33104;SDS011;19476;51.448;6.674;2023-05-13T02:53:33;5.60;;;3.70;;
33104;SDS011;19476;51.448;6.674;2023-05-13T02:55:59;5.03;;;3.75;;
33104;SDS011;19476;51.448;6.674;2023-05-13T02:58:25;5.40;;;3.80;;
33104;SDS011;19476;51.448;6.674;2023-05-13T03:00:51;5.35;;;3.78;;
33104;SDS011;19476;51.448;6.674;2023-05-13T03:03:16;6.97;;;4.55;;
33104;SDS011;19476;51.448;6.674;2023-05-13T03:05:42;5.63;;;3.75;;
33104;SDS011;19476;51.448;6.674;2023-05-13T03:08:08;4.82;;;3.55;;
33104;SDS011;19476;51.448;6.674;2023-05-13T03:10:34;6.72;;;3.92;;
33104;SDS011;19476;51.448;6.674;2023-05-13T03:12:59;5.97;;;4.22;;
33104;SDS011;19476;51.448;6.674;2023-05-13T03:15:25;6.05;;;3.70;;
33104;SDS011;19476;51.448;6.674;2023-05-13T03:17:51;5.57;;;3.88;;
33104;SDS011;19476;51.448;6.674;2023-05-13T03:20:17;5.93;;;3.80;;
33104;SDS011;19476;51.448;6.674;2023-05-13T03:22:42;6.00;;;4.07;;
33104;SDS011;19476;51.448;6.674;2023-05-13T03:25:09;7.40;;;3.63;;
33104;SDS011;19476;51.448;6.674;2023-05-13T03:27:34;6.43;;;4.45;;
33104;SDS011;19476;51.448;6.674;2023-05-13T03:30:00;8.13;;;4.50;;
33104;SDS011;19476;51.448;6.674;2023-05-13T03:32:26;5.35;;;3.95;;
33104;SDS011;19476;51.448;6.674;2023-05-13T03:34:57;5.80;;;3.85;;
33104;SDS011;19476;51.448;6.674;2023-05-13T03:37:24;6.90;;;3.80;;
33104;SDS011;19476;51.448;6.674;2023-05-13T03:39:50;6.65;;;4.07;;
33104;SDS011;19476;51.448;6.674;2023-05-13T03:42:16;6.13;;;4.13;;
33104;SDS011;19476;51.448;6.674;2023-05-13T03:44:42;5.22;;;3.70;;
33104;SDS011;19476;51.448;6.674;2023-05-13T03:47:08;5.57;;;3.67;;
33104;SDS011;19476;51.448;6.674;2023-05-13T03:49:34;6.13;;;3.88;;
33104;SDS011;19476;51.448;6.674;2023-05-13T03:52:00;5.45;;;4.10;;
33104;SDS011;19476;51.448;6.674;2023-05-13T03:54:25;5.97;;;4.20;;
33104;SDS011;19476;51.448;6.674;2023-05-13T03:56:51;5.55;;;4.07;;
33104;SDS011;19476;51.448;6.674;2023-05-13T03:59:17;5.47;;;3.80;;
33104;SDS011;19476;51.448;6.674;2023-05-13T04:01:43;6.18;;;3.42;;
33104;SDS011;19476;51.448;6.674;2023-05-13T04:04:08;5.40;;;3.63;;
33104;SDS011;19476;51.448;6.674;2023-05-13T04:06:34;5.82;;;3.95;;
33104;SDS011;19476;51.448;6.674;2023-05-13T04:09:00;5.70;;;3.53;;
33104;SDS011;19476;51.448;6.674;2023-05-13T04:11:28;4.68;;;3.85;;
33104;SDS011;19476;51.448;6.674;2023-05-13T04:13:55;6.93;;;4.07;;
33104;SDS011;19476;51.448;6.674;2023-05-13T04:16:21;6.13;;;3.78;;
33104;SDS011;19476;51.448;6.674;2023-05-13T04:18:47;7.03;;;3.95;;
33104;SDS011;19476;51.448;6.674;2023-05-13T04:21:13;4.78;;;3.42;;
33104;SDS011;19476;51.448;6.674;2023-05-13T04:23:39;5.57;;;4.00;;
33104;SDS011;19476;51.448;6.674;2023-05-13T04:26:05;5.40;;;3.83;;
33104;SDS011;19476;51.448;6.674;2023-05-13T04:28:31;5.65;;;4.07;;
33104;SDS011;19476;51.448;6.674;2023-05-13T04:30:59;7.45;;;4.47;;
33104;SDS011;19476;51.448;6.674;2023-05-13T04:33:24;5.97;;;3.83;;
33104;SDS011;19476;51.448;6.674;2023-05-13T04:35:51;5.85;;;4.07;;
33104;SDS011;19476;51.448;6.674;2023-05-13T04:38:17;7.53;;;4.20;;
33104;SDS011;19476;51.448;6.674;2023-05-13T04:40:43;6.30;;;4.10;;
33104;SDS011;19476;51.448;6.674;2023-05-13T04:43:09;5.40;;;3.78;;
33104;SDS011;19476;51.448;6.674;2023-05-13T04:45:36;6.53;;;3.88;;
33104;SDS011;19476;51.448;6.674;2023-05-13T04:48:02;6.25;;;3.90;;
33104;SDS011;19476;51.448;6.674;2023-05-13T04:50:28;4.80;;;3.33;;
33104;SDS011;19476;51.448;6.674;2023-05-13T04:52:55;6.43;;;3.97;;
33104;SDS011;19476;51.448;6.674;2023-05-13T04:55:22;6.70;;;3.80;;
33104;SDS011;19476;51.448;6.674;2023-05-13T04:57:48;6.97;;;4.07;;
33104;SDS011;19476;51.448;6.674;2023-05-13T05:00:14;6.97;;;3.58;;
33104;SDS011;19476;51.448;6.674;2023-05-13T05:02:40;5.68;;;3.97;;
33104;SDS011;19476;51.448;6.674;2023-05-13T05:05:06;6.00;;;3.70;;
33104;SDS011;19476;51.448;6.674;2023-05-13T05:07:32;5.72;;;3.67;;
33104;SDS011;19476;51.448;6.674;2023-05-13T05:09:58;6.35;;;4.00;;
33104;SDS011;19476;51.448;6.674;2023-05-13T05:12:23;8.82;;;4.53;;
33104;SDS011;19476;51.448;6.674;2023-05-13T05:14:50;6.63;;;3.95;;
33104;SDS011;19476;51.448;6.674;2023-05-13T05:17:15;7.78;;;4.22;;
33104;SDS011;19476;51.448;6.674;2023-05-13T05:19:41;6.32;;;3.78;;
33104;SDS011;19476;51.448;6.674;2023-05-13T05:22:07;6.30;;;4.30;;
33104;SDS011;19476;51.448;6.674;2023-05-13T05:24:33;5.32;;;3.88;;
33104;SDS011;19476;51.448;6.674;2023-05-13T05:26:59;5.68;;;4.05;;
33104;SDS011;19476;51.448;6.674;2023-05-13T05:29:25;5.60;;;3.80;;
33104;SDS011;19476;51.448;6.674;2023-05-13T05:31:50;6.28;;;4.10;;
33104;SDS011;19476;51.448;6.674;2023-05-13T05:34:16;5.53;;;3.70;;
33104;SDS011;19476;51.448;6.674;2023-05-13T05:36:42;6.15;;;4.28;;
33104;SDS011;19476;51.448;6.674;2023-05-13T05:39:08;5.25;;;3.92;;
33104;SDS011;19476;51.448;6.674;2023-05-13T05:41:34;7.60;;;4.03;;
33104;SDS011;19476;51.448;6.674;2023-05-13T05:44:00;6.95;;;4.07;;
33104;SDS011;19476;51.448;6.674;2023-05-13T05:46:25;7.13;;;4.80;;
33104;SDS011;19476;51.448;6.674;2023-05-13T05:48:51;6.00;;;4.20;;
33104;SDS011;19476;51.448;6.674;2023-05-13T05:51:17;7.93;;;4.63;;
33104;SDS011;19476;51.448;6.674;2023-05-13T05:53:42;7.07;;;4.18;;
33104;SDS011;19476;51.448;6.674;2023-05-13T05:56:08;5.78;;;4.13;;
33104;SDS011;19476;51.448;6.674;2023-05-13T05:58:34;6.75;;;4.25;;
33104;SDS011;19476;51.448;6.674;2023-05-13T06:01:00;8.07;;;4.45;;
33104;SDS011;19476;51.448;6.674;2023-05-13T06:03:26;5.55;;;4.10;;
33104;SDS011;19476;51.448;6.674;2023-05-13T06:05:52;5.65;;;3.83;;
33104;SDS011;19476;51.448;6.674;2023-05-13T06:08:19;5.50;;;3.90;;
33104;SDS011;19476;51.448;6.674;2023-05-13T06:10:44;6.57;;;4.28;;
33104;SDS011;19476;51.448;6.674;2023-05-13T06:13:10;7.10;;;4.53;;
33104;SDS011;19476;51.448;6.674;2023-05-13T06:15:39;6.10;;;4.20;;
33104;SDS011;19476;51.448;6.674;2023-05-13T06:18:05;6.32;;;4.22;;
33104;SDS011;19476;51.448;6.674;2023-05-13T06:20:30;5.50;;;3.95;;
33104;SDS011;19476;51.448;6.674;2023-05-13T06:22:56;5.22;;;3.95;;
33104;SDS011;19476;51.448;6.674;2023-05-13T06:25:23;5.75;;;3.85;;
33104;SDS011;19476;51.448;6.674;2023-05-13T06:27:48;7.13;;;4.35;;
33104;SDS011;19476;51.448;6.674;2023-05-13T06:30:14;6.20;;;4.38;;
33104;SDS011;19476;51.448;6.674;2023-05-13T06:32:40;6.88;;;4.72;;
33104;SDS011;19476;51.448;6.674;2023-05-13T06:35:06;6.80;;;4.78;;
33104;SDS011;19476;51.448;6.674;2023-05-13T06:37:32;7.35;;;4.60;;
33104;SDS011;19476;51.448;6.674;2023-05-13T06:39:58;6.85;;;4.47;;
33104;SDS011;19476;51.448;6.674;2023-05-13T06:42:24;5.45;;;3.63;;
33104;SDS011;19476;51.448;6.674;2023-05-13T06:44:50;6.45;;;4.40;;
33104;SDS011;19476;51.448;6.674;2023-05-13T06:47:15;6.10;;;3.83;;
33104;SDS011;19476;51.448;6.674;2023-05-13T06:49:41;6.53;;;3.70;;
33104;SDS011;19476;51.448;6.674;2023-05-13T06:52:08;7.50;;;4.38;;
33104;SDS011;19476;51.448;6.674;2023-05-13T06:54:34;6.68;;;3.92;;
33104;SDS011;19476;51.448;6.674;2023-05-13T06:57:00;6.47;;;3.97;;
33104;SDS011;19476;51.448;6.674;2023-05-13T06:59:26;5.68;;;3.42;;
33104;SDS011;19476;51.448;6.674;2023-05-13T07:01:52;7.97;;;4.68;;
33104;SDS011;19476;51.448;6.674;2023-05-13T07:04:18;5.82;;;4.10;;
33104;SDS011;19476;51.448;6.674;2023-05-13T07:06:43;6.85;;;4.03;;
33104;SDS011;19476;51.448;6.674;2023-05-13T07:09:09;6.15;;;4.10;;
33104;SDS011;19476;51.448;6.674;2023-05-13T07:11:35;5.75;;;3.65;;
33104;SDS011;19476;51.448;6.674;2023-05-13T07:14:01;6.05;;;4.05;;
33104;SDS011;19476;51.448;6.674;2023-05-13T07:16:27;6.30;;;4.30;;
33104;SDS011;19476;51.448;6.674;2023-05-13T07:18:53;6.53;;;3.78;;
33104;SDS011;19476;51.448;6.674;2023-05-13T07:21:19;7.68;;;4.18;;
33104;SDS011;19476;51.448;6.674;2023-05-13T07:23:45;6.78;;;4.35;;
33104;SDS011;19476;51.448;6.674;2023-05-13T07:26:11;5.82;;;3.60;;
33104;SDS011;19476;51.448;6.674;2023-05-13T07:28:37;6.60;;;3.60;;
33104;SDS011;19476;51.448;6.674;2023-05-13T07:31:03;5.82;;;3.75;;
33104;SDS011;19476;51.448;6.674;2023-05-13T07:33:29;5.95;;;3.85;;
33104;SDS011;19476;51.448;6.674;2023-05-13T07:35:55;5.07;;;3.20;;
33104;SDS011;19476;51.448;6.674;2023-05-13T07:38:21;6.10;;;3.60;;
33104;SDS011;19476;51.448;6.674;2023-05-13T07:40:47;5.60;;;3.95;;
33104;SDS011;19476;51.448;6.674;2023-05-13T07:43:13;6.50;;;4.28;;
33104;SDS011;19476;51.448;6.674;2023-05-13T07:45:42;10.70;;;3.72;;
33104;SDS011;19476;51.448;6.674;2023-05-13T07:48:08;4.78;;;3.45;;
33104;SDS011;19476;51.448;6.674;2023-05-13T07:50:34;5.47;;;3.63;;
33104;SDS011;19476;51.448;6.674;2023-05-13T07:53:01;5.53;;;4.07;;
33104;SDS011;19476;51.448;6.674;2023-05-13T07:55:27;6.00;;;4.25;;
33104;SDS011;19476;51.448;6.674;2023-05-13T07:57:53;6.13;;;3.50;;
33104;SDS011;19476;51.448;6.674;2023-05-13T08:00:18;5.13;;;3.67;;
33104;SDS011;19476;51.448;6.674;2023-05-13T08:02:45;5.57;;;3.72;;
33104;SDS011;19476;51.448;6.674;2023-05-13T08:05:10;6.30;;;3.90;;
33104;SDS011;19476;51.448;6.674;2023-05-13T08:07:36;7.63;;;4.07;;
33104;SDS011;19476;51.448;6.674;2023-05-13T08:10:02;5.05;;;3.42;;
33104;SDS011;19476;51.448;6.674;2023-05-13T08:12:28;5.88;;;3.80;;
33104;SDS011;19476;51.448;6.674;2023-05-13T08:14:54;5.78;;;3.72;;
33104;SDS011;19476;51.448;6.674;2023-05-13T08:17:20;6.50;;;3.85;;
33104;SDS011;19476;51.448;6.674;2023-05-13T08:19:46;4.78;;;3.35;;
33104;SDS011;19476;51.448;6.674;2023-05-13T08:22:13;5.63;;;3.45;;
33104;SDS011;19476;51.448;6.674;2023-05-13T08:24:38;6.00;;;4.05;;
33104;SDS011;19476;51.448;6.674;2023-05-13T08:27:05;7.60;;;4.80;;
33104;SDS011;19476;51.448;6.674;2023-05-13T08:29:30;7.25;;;4.35;;
33104;SDS011;19476;51.448;6.674;2023-05-13T08:31:57;6.47;;;3.90;;
33104;SDS011;19476;51.448;6.674;2023-05-13T08:34:22;6.35;;;4.28;;
33104;SDS011;19476;51.448;6.674;2023-05-13T08:36:48;5.97;;;4.20;;
33104;SDS011;19476;51.448;6.674;2023-05-13T08:39:14;6.32;;;4.30;;
33104;SDS011;19476;51.448;6.674;2023-05-13T08:41:40;5.85;;;3.58;;
33104;SDS011;19476;51.448;6.674;2023-05-13T08:44:08;5.50;;;3.78;;
33104;SDS011;19476;51.448;6.674;2023-05-13T08:46:37;4.97;;;3.50;;
33104;SDS011;19476;51.448;6.674;2023-05-13T08:49:09;6.55;;;4.18;;
33104;SDS011;19476;51.448;6.674;2023-05-13T08:51:35;6.20;;;4.18;;
33104;SDS011;19476;51.448;6.674;2023-05-13T08:54:01;6.00;;;4.05;;
33104;SDS011;19476;51.448;6.674;2023-05-13T08:56:28;9.32;;;3.97;;
33104;SDS011;19476;51.448;6.674;2023-05-13T08:58:54;5.20;;;3.75;;
33104;SDS011;19476;51.448;6.674;2023-05-13T09:01:21;5.13;;;3.13;;
33104;SDS011;19476;51.448;6.674;2023-05-13T09:03:52;6.43;;;3.65;;
33104;SDS011;19476;51.448;6.674;2023-05-13T09:06:23;5.43;;;3.50;;
33104;SDS011;19476;51.448;6.674;2023-05-13T09:08:50;4.90;;;2.97;;
33104;SDS011;19476;51.448;6.674;2023-05-13T09:11:15;5.57;;;2.97;;
33104;SDS011;19476;51.448;6.674;2023-05-13T09:13:44;4.35;;;3.10;;
33104;SDS011;19476;51.448;6.674;2023-05-13T09:16:10;4.32;;;3.17;;
33104;SDS011;19476;51.448;6.674;2023-05-13T09:18:38;4.65;;;3.05;;
33104;SDS011;19476;51.448;6.674;2023-05-13T09:21:20;5.43;;;3.55;;
33104;SDS011;19476;51.448;6.674;2023-05-13T09:26:34;5.30;;;3.30;;
33104;SDS011;19476;51.448;6.674;2023-05-13T09:31:59;6.00;;;3.17;;
33104;SDS011;19476;51.448;6.674;2023-05-13T09:34:30;4.47;;;2.92;;
33104;SDS011;19476;51.448;6.674;2023-05-13T09:37:01;4.32;;;3.00;;
33104;SDS011;19476;51.448;6.674;2023-05-13T09:39:28;7.32;;;3.00;;
33104;SDS011;19476;51.448;6.674;2023-05-13T09:41:55;5.30;;;2.65;;
33104;SDS011;19476;51.448;6.674;2023-05-13T09:44:20;4.63;;;3.03;;
33104;SDS011;19476;51.448;6.674;2023-05-13T09:46:47;6.85;;;3.65;;
33104;SDS011;19476;51.448;6.674;2023-05-13T09:49:15;5.85;;;3.40;;
33104;SDS011;19476;51.448;6.674;2023-05-13T09:51:41;5.85;;;3.45;;
33104;SDS011;19476;51.448;6.674;2023-05-13T09:54:09;4.83;;;2.70;;
33104;SDS011;19476;51.448;6.674;2023-05-13T09:56:35;5.45;;;3.10;;
33104;SDS011;19476;51.448;6.674;2023-05-13T09:59:02;5.97;;;2.92;;
33104;SDS011;19476;51.448;6.674;2023-05-13T10:01:28;4.72;;;2.90;;
33104;SDS011;19476;51.448;6.674;2023-05-13T10:03:54;5.93;;;2.75;;
33104;SDS011;19476;51.448;6.674;2023-05-13T10:06:23;4.82;;;2.67;;
33104;SDS011;19476;51.448;6.674;2023-05-13T10:08:58;5.13;;;3.10;;
33104;SDS011;19476;51.448;6.674;2023-05-13T10:11:28;5.65;;;2.58;;
33104;SDS011;19476;51.448;6.674;2023-05-13T10:14:00;4.80;;;2.92;;
33104;SDS011;19476;51.448;6.674;2023-05-13T10:16:32;5.20;;;3.15;;
33104;SDS011;19476;51.448;6.674;2023-05-13T10:18:59;7.25;;;3.15;;
33104;SDS011;19476;51.448;6.674;2023-05-13T10:21:25;5.63;;;2.90;;
33104;SDS011;19476;51.448;6.674;2023-05-13T10:23:51;6.63;;;2.97;;
33104;SDS011;19476;51.448;6.674;2023-05-13T10:26:19;7.35;;;3.13;;
33104;SDS011;19476;51.448;6.674;2023-05-13T10:28:46;5.70;;;3.35;;
33104;SDS011;19476;51.448;6.674;2023-05-13T10:31:12;4.82;;;2.95;;
33104;SDS011;19476;51.448;6.674;2023-05-13T10:33:38;4.82;;;2.67;;
33104;SDS011;19476;51.448;6.674;2023-05-13T10:44:56;5.18;;;3.05;;
33104;SDS011;19476;51.448;6.674;2023-05-13T10:47:22;7.72;;;3.78;;
33104;SDS011;19476;51.448;6.674;2023-05-13T10:49:49;6.82;;;3.42;;
33104;SDS011;19476;51.448;6.674;2023-05-13T10:52:18;5.03;;;2.95;;
33104;SDS011;19476;51.448;6.674;2023-05-13T10:54:56;5.60;;;3.17;;
33104;SDS011;19476;51.448;6.674;2023-05-13T10:57:34;4.47;;;3.00;;
33104;SDS011;19476;51.448;6.674;2023-05-13T11:00:17;5.22;;;3.40;;
33104;SDS011;19476;51.448;6.674;2023-05-13T11:02:44;4.03;;;2.70;;
33104;SDS011;19476;51.448;6.674;2023-05-13T11:05:17;5.15;;;3.15;;
33104;SDS011;19476;51.448;6.674;2023-05-13T11:07:54;4.22;;;2.53;;
33104;SDS011;19476;51.448;6.674;2023-05-13T11:10:24;6.20;;;3.13;;
33104;SDS011;19476;51.448;6.674;2023-05-13T11:15:43;4.65;;;2.80;;
33104;SDS011;19476;51.448;6.674;2023-05-13T11:18:10;6.00;;;3.15;;
33104;SDS011;19476;51.448;6.674;2023-05-13T11:20:37;4.13;;;3.00;;
33104;SDS011;19476;51.448;6.674;2023-05-13T11:23:03;4.60;;;3.20;;
33104;SDS011;19476;51.448;6.674;2023-05-13T11:25:33;5.90;;;2.90;;
33104;SDS011;19476;51.448;6.674;2023-05-13T11:27:59;9.23;;;2.83;;
33104;SDS011;19476;51.448;6.674;2023-05-13T11:30:25;4.75;;;2.55;;
33104;SDS011;19476;51.448;6.674;2023-05-13T11:32:53;5.70;;;2.90;;
33104;SDS011;19476;51.448;6.674;2023-05-13T11:35:24;3.20;;;2.33;;
33104;SDS011;19476;51.448;6.674;2023-05-13T11:37:54;4.85;;;3.08;;
33104;SDS011;19476;51.448;6.674;2023-05-13T11:40:22;4.32;;;2.00;;
33104;SDS011;19476;51.448;6.674;2023-05-13T11:42:48;4.47;;;2.63;;
33104;SDS011;19476;51.448;6.674;2023-05-13T11:45:18;3.40;;;2.40;;
33104;SDS011;19476;51.448;6.674;2023-05-13T11:47:45;4.55;;;2.65;;
33104;SDS011;19476;51.448;6.674;2023-05-13T11:50:25;3.78;;;2.75;;
33104;SDS011;19476;51.448;6.674;2023-05-13T11:52:58;3.17;;;2.60;;
33104;SDS011;19476;51.448;6.674;2023-05-13T11:55:29;3.65;;;2.70;;
33104;SDS011;19476;51.448;6.674;2023-05-13T11:57:55;5.72;;;2.83;;
33104;SDS011;19476;51.448;6.674;2023-05-13T12:00:25;4.53;;;2.88;;
33104;SDS011;19476;51.448;6.674;2023-05-13T12:02:53;3.72;;;2.90;;
33104;SDS011;19476;51.448;6.674;2023-05-13T12:05:20;4.18;;;2.63;;
33104;SDS011;19476;51.448;6.674;2023-05-13T12:07:46;3.95;;;2.50;;
33104;SDS011;19476;51.448;6.674;2023-05-13T12:10:12;5.07;;;3.35;;
33104;SDS011;19476;51.448;6.674;2023-05-13T12:12:39;4.72;;;3.00;;
33104;SDS011;19476;51.448;6.674;2023-05-13T12:15:08;6.07;;;2.90;;
33104;SDS011;19476;51.448;6.674;2023-05-13T12:17:40;3.90;;;2.92;;
33104;SDS011;19476;51.448;6.674;2023-05-13T12:30:59;3.70;;;2.80;;
33104;SDS011;19476;51.448;6.674;2023-05-13T12:33:33;3.65;;;2.78;;
33104;SDS011;19476;51.448;6.674;2023-05-13T12:38:58;4.03;;;2.53;;
33104;SDS011;19476;51.448;6.674;2023-05-13T12:41:25;6.00;;;2.67;;
33104;SDS011;19476;51.448;6.674;2023-05-13T12:43:58;3.40;;;2.65;;
33104;SDS011;19476;51.448;6.674;2023-05-13T12:46:26;4.30;;;2.60;;
33104;SDS011;19476;51.448;6.674;2023-05-13T12:48:55;5.22;;;2.65;;
33104;SDS011;19476;51.448;6.674;2023-05-13T12:51:26;4.15;;;2.78;;
33104;SDS011;19476;51.448;6.674;2023-05-13T12:53:53;3.63;;;2.10;;
33104;SDS011;19476;51.448;6.674;2023-05-13T12:56:23;3.60;;;2.50;;
33104;SDS011;19476;51.448;6.674;2023-05-13T12:58:51;3.58;;;2.78;;
33104;SDS011;19476;51.448;6.674;2023-05-13T13:01:18;4.88;;;2.85;;
33104;SDS011;19476;51.448;6.674;2023-05-13T13:03:45;5.38;;;2.85;;
33104;SDS011;19476;51.448;6.674;2023-05-13T13:06:11;3.95;;;2.58;;
33104;SDS011;19476;51.448;6.674;2023-05-13T13:08:38;5.78;;;2.55;;
33104;SDS011;19476;51.448;6.674;2023-05-13T13:11:04;5.20;;;2.85;;
33104;SDS011;19476;51.448;6.674;2023-05-13T13:13:30;5.30;;;2.50;;
33104;SDS011;19476;51.448;6.674;2023-05-13T13:15:57;5.03;;;2.92;;
33104;SDS011;19476;51.448;6.674;2023-05-13T13:18:23;4.95;;;2.85;;
33104;SDS011;19476;51.448;6.674;2023-05-13T13:20:50;4.50;;;2.65;;
33104;SDS011;19476;51.448;6.674;2023-05-13T13:23:16;4.45;;;2.90;;
33104;SDS011;19476;51.448;6.674;2023-05-13T13:25:43;3.67;;;2.67;;
33104;SDS011;19476;51.448;6.674;2023-05-13T13:28:09;4.88;;;2.70;;
33104;SDS011;19476;51.448;6.674;2023-05-13T13:30:35;3.72;;;2.30;;
33104;SDS011;19476;51.448;6.674;2023-05-13T13:33:02;4.80;;;2.85;;
33104;SDS011;19476;51.448;6.674;2023-05-13T13:35:28;3.08;;;2.25;;
33104;SDS011;19476;51.448;6.674;2023-05-13T13:37:54;7.38;;;2.80;;
33104;SDS011;19476;51.448;6.674;2023-05-13T13:40:20;3.80;;;2.20;;
33104;SDS011;19476;51.448;6.674;2023-05-13T13:42:46;4.28;;;3.05;;
33104;SDS011;19476;51.448;6.674;2023-05-13T13:45:12;5.63;;;2.53;;
33104;SDS011;19476;51.448;6.674;2023-05-13T13:47:44;4.40;;;2.95;;
33104;SDS011;19476;51.448;6.674;2023-05-13T13:50:10;4.03;;;2.70;;
33104;SDS011;19476;51.448;6.674;2023-05-13T13:52:36;4.35;;;3.13;;
33104;SDS011;19476;51.448;6.674;2023-05-13T13:55:06;4.90;;;2.85;;
33104;SDS011;19476;51.448;6.674;2023-05-13T13:57:36;3.92;;;2.67;;
33104;SDS011;19476;51.448;6.674;2023-05-13T14:00:06;3.63;;;2.67;;
33104;SDS011;19476;51.448;6.674;2023-05-13T14:02:35;4.82;;;2.97;;
33104;SDS011;19476;51.448;6.674;2023-05-13T14:05:02;4.05;;;2.90;;
33104;SDS011;19476;51.448;6.674;2023-05-13T14:07:29;4.88;;;2.92;;
33104;SDS011;19476;51.448;6.674;2023-05-13T14:09:55;4.50;;;3.00;;
33104;SDS011;19476;51.448;6.674;2023-05-13T14:12:21;4.40;;;2.97;;
33104;SDS011;19476;51.448;6.674;2023-05-13T14:14:47;4.03;;;2.63;;
33104;SDS011;19476;51.448;6.674;2023-05-13T14:17:13;6.28;;;2.85;;
33104;SDS011;19476;51.448;6.674;2023-05-13T14:19:38;3.80;;;2.53;;
33104;SDS011;19476;51.448;6.674;2023-05-13T14:22:06;3.97;;;3.00;;
33104;SDS011;19476;51.448;6.674;2023-05-13T14:24:32;4.10;;;2.83;;
33104;SDS011;19476;51.448;6.674;2023-05-13T14:26:58;3.88;;;2.78;;
33104;SDS011;19476;51.448;6.674;2023-05-13T14:29:24;4.53;;;2.90;;
33104;SDS011;19476;51.448;6.674;2023-05-13T14:31:52;5.72;;;3.40;;
33104;SDS011;19476;51.448;6.674;2023-05-13T14:34:18;3.95;;;2.83;;
33104;SDS011;19476;51.448;6.674;2023-05-13T14:36:44;4.38;;;3.25;;
33104;SDS011;19476;51.448;6.674;2023-05-13T14:39:10;6.00;;;3.28;;
33104;SDS011;19476;51.448;6.674;2023-05-13T14:41:36;3.97;;;3.20;;
33104;SDS011;19476;51.448;6.674;2023-05-13T14:44:06;5.00;;;3.20;;
33104;SDS011;19476;51.448;6.674;2023-05-13T14:46:32;4.35;;;2.75;;
33104;SDS011;19476;51.448;6.674;2023-05-13T14:49:01;4.23;;;2.90;;
33104;SDS011;19476;51.448;6.674;2023-05-13T14:51:27;3.85;;;2.92;;
33104;SDS011;19476;51.448;6.674;2023-05-13T14:53:53;4.30;;;2.92;;
33104;SDS011;19476;51.448;6.674;2023-05-13T14:56:19;5.85;;;2.90;;
33104;SDS011;19476;51.448;6.674;2023-05-13T14:58:45;7.75;;;3.00;;
33104;SDS011;19476;51.448;6.674;2023-05-13T15:01:13;4.28;;;3.08;;
33104;SDS011;19476;51.448;6.674;2023-05-13T15:03:39;4.30;;;2.65;;
33104;SDS011;19476;51.448;6.674;2023-05-13T15:06:05;4.60;;;3.15;;
33104;SDS011;19476;51.448;6.674;2023-05-13T15:08:32;5.32;;;2.80;;
33104;SDS011;19476;51.448;6.674;2023-05-13T15:10:58;5.10;;;3.72;;
33104;SDS011;19476;51.448;6.674;2023-05-13T15:13:24;4.32;;;3.10;;
33104;SDS011;19476;51.448;6.674;2023-05-13T15:15:53;3.58;;;2.90;;
33104;SDS011;19476;51.448;6.674;2023-05-13T15:18:19;5.95;;;3.05;;
33104;SDS011;19476;51.448;6.674;2023-05-13T15:20:45;5.15;;;2.60;;